sensor_id;sensor_type;location;lat;lon;timestamp;temperature;humidity
9482;DHT22;4779;48.062;11.672;2024-02-04T00:00:40;6.30;99.90
9482;DHT22;4779;48.062;11.672;2024-02-04T00:03:09;6.30;99.90
9482;DHT22;4779;48.062;11.672;2024-02-04T00:05:37;6.30;99.90
9482;DHT22;4779;48.062;11.672;2024-02-04T00:08:04;6.30;99.90
9482;DHT22;4779;48.062;11.672;2024-02-04T00:10:31;6.30;99.90
9482;DHT22;4779;48.062;11.672;2024-02-04T00:13:00;6.20;99.90
9482;DHT22;4779;48.062;11.672;2024-02-04T00:15:27;6.30;99.90
9482;DHT22;4779;48.062;11.672;2024-02-04T00:17:54;6.30;99.90
9482;DHT22;4779;48.062;11.672;2024-02-04T00:20:23;6.40;99.90
9482;DHT22;4779;48.062;11.672;2024-02-04T00:22:51;6.40;99.90
9482;DHT22;4779;48.062;11.672;2024-02-04T00:25:18;6.30;99.90
9482;DHT22;4779;48.062;11.672;2024-02-04T00:27:45;6.30;99.90
9482;DHT22;4779;48.062;11.672;2024-02-04T00:30:12;6.30;99.90
9482;DHT22;4779;48.062;11.672;2024-02-04T00:32:39;6.30;99.90
9482;DHT22;4779;48.062;11.672;2024-02-04T00:35:10;6.30;99.90
9482;DHT22;4779;48.062;11.672;2024-02-04T00:37:41;6.30;99.90
9482;DHT22;4779;48.062;11.672;2024-02-04T00:40:09;6.30;99.90
9482;DHT22;4779;48.062;11.672;2024-02-04T00:42:36;6.30;99.90
9482;DHT22;4779;48.062;11.672;2024-02-04T00:45:04;6.30;99.90
9482;DHT22;4779;48.062;11.672;2024-02-04T00:47:31;6.30;99.90
9482;DHT22;4779;48.062;11.672;2024-02-04T00:49:58;6.30;99.90
9482;DHT22;4779;48.062;11.672;2024-02-04T00:52:25;6.30;99.90
9482;DHT22;4779;48.062;11.672;2024-02-04T00:54:53;6.20;99.90
9482;DHT22;4779;48.062;11.672;2024-02-04T00:57:20;6.10;99.90
9482;DHT22;4779;48.062;11.672;2024-02-04T00:59:47;6.10;99.90
9482;DHT22;4779;48.062;11.672;2024-02-04T01:02:16;6.10;99.90
9482;DHT22;4779;48.062;11.672;2024-02-04T01:04:43;6.10;99.90
9482;DHT22;4779;48.062;11.672;2024-02-04T01:07:10;6.10;99.90
9482;DHT22;4779;48.062;11.672;2024-02-04T01:09:37;6.20;99.90
9482;DHT22;4779;48.062;11.672;2024-02-04T01:12:06;6.10;99.90
9482;DHT22;4779;48.062;11.672;2024-02-04T01:14:33;6.20;99.90
9482;DHT22;4779;48.062;11.672;2024-02-04T01:17:00;6.20;99.90
9482;DHT22;4779;48.062;11.672;2024-02-04T01:19:27;6.20;99.90
9482;DHT22;4779;48.062;11.672;2024-02-04T01:21:54;6.20;99.90
9482;DHT22;4779;48.062;11.672;2024-02-04T01:24:21;6.10;99.90
9482;DHT22;4779;48.062;11.672;2024-02-04T01:26:48;6.10;99.90
9482;DHT22;4779;48.062;11.672;2024-02-04T01:29:16;6.10;99.90
9482;DHT22;4779;48.062;11.672;2024-02-04T01:31:43;6.10;99.90
9482;DHT22;4779;48.062;11.672;2024-02-04T01:34:10;6.20;99.90
9482;DHT22;4779;48.062;11.672;2024-02-04T01:36:37;6.20;99.90
9482;DHT22;4779;48.062;11.672;2024-02-04T01:39:04;6.20;99.90
9482;DHT22;4779;48.062;11.672;2024-02-04T01:41:31;6.20;99.90
9482;DHT22;4779;48.062;11.672;2024-02-04T01:43:59;6.10;99.90
9482;DHT22;4779;48.062;11.672;2024-02-04T01:46:27;6.10;99.90
9482;DHT22;4779;48.062;11.672;2024-02-04T01:48:54;6.00;99.90
9482;DHT22;4779;48.062;11.672;2024-02-04T01:51:21;6.00;99.90
9482;DHT22;4779;48.062;11.672;2024-02-04T01:53:49;6.00;99.90
9482;DHT22;4779;48.062;11.672;2024-02-04T01:56:17;5.90;99.90
9482;DHT22;4779;48.062;11.672;2024-02-04T01:58:44;5.90;99.90
9482;DHT22;4779;48.062;11.672;2024-02-04T02:01:13;5.90;99.90
9482;DHT22;4779;48.062;11.672;2024-02-04T02:03:41;5.90;99.90
9482;DHT22;4779;48.062;11.672;2024-02-04T02:06:09;5.80;99.90
9482;DHT22;4779;48.062;11.672;2024-02-04T02:08:36;5.80;99.90
9482;DHT22;4779;48.062;11.672;2024-02-04T02:11:08;5.80;99.90
9482;DHT22;4779;48.062;11.672;2024-02-04T02:13:38;5.80;99.90
9482;DHT22;4779;48.062;11.672;2024-02-04T02:16:10;5.80;99.90
9482;DHT22;4779;48.062;11.672;2024-02-04T02:18:45;5.90;99.90
9482;DHT22;4779;48.062;11.672;2024-02-04T02:21:24;5.80;99.90
9482;DHT22;4779;48.062;11.672;2024-02-04T02:24:03;5.90;99.90
9482;DHT22;4779;48.062;11.672;2024-02-04T02:26:32;5.90;99.90
9482;DHT22;4779;48.062;11.672;2024-02-04T02:29:03;5.90;99.90
9482;DHT22;4779;48.062;11.672;2024-02-04T02:31:30;5.90;99.90
9482;DHT22;4779;48.062;11.672;2024-02-04T02:33:58;5.90;99.90
9482;DHT22;4779;48.062;11.672;2024-02-04T02:36:28;6.00;99.90
9482;DHT22;4779;48.062;11.672;2024-02-04T02:39:01;6.10;99.90
9482;DHT22;4779;48.062;11.672;2024-02-04T02:41:36;6.00;99.90
9482;DHT22;4779;48.062;11.672;2024-02-04T02:44:05;5.90;99.90
9482;DHT22;4779;48.062;11.672;2024-02-04T02:46:33;5.90;99.90
9482;DHT22;4779;48.062;11.672;2024-02-04T02:49:01;5.90;99.90
9482;DHT22;4779;48.062;11.672;2024-02-04T02:51:28;5.90;99.90
9482;DHT22;4779;48.062;11.672;2024-02-04T02:53:55;5.90;99.90
9482;DHT22;4779;48.062;11.672;2024-02-04T02:56:22;6.00;99.90
9482;DHT22;4779;48.062;11.672;2024-02-04T02:58:50;6.00;99.90
9482;DHT22;4779;48.062;11.672;2024-02-04T03:01:17;5.90;99.90
9482;DHT22;4779;48.062;11.672;2024-02-04T03:03:44;6.00;99.90
9482;DHT22;4779;48.062;11.672;2024-02-04T03:06:11;5.90;99.90
9482;DHT22;4779;48.062;11.672;2024-02-04T03:08:38;5.90;99.90
9482;DHT22;4779;48.062;11.672;2024-02-04T03:11:05;5.80;99.90
9482;DHT22;4779;48.062;11.672;2024-02-04T03:13:32;5.80;99.90
9482;DHT22;4779;48.062;11.672;2024-02-04T03:16:01;5.90;99.90
9482;DHT22;4779;48.062;11.672;2024-02-04T03:18:28;5.90;99.90
9482;DHT22;4779;48.062;11.672;2024-02-04T03:20:55;6.10;99.90
9482;DHT22;4779;48.062;11.672;2024-02-04T03:23:22;6.10;99.90
9482;DHT22;4779;48.062;11.672;2024-02-04T03:25:49;6.00;99.90
9482;DHT22;4779;48.062;11.672;2024-02-04T03:28:16;6.00;99.90
9482;DHT22;4779;48.062;11.672;2024-02-04T03:30:44;6.00;99.90
9482;DHT22;4779;48.062;11.672;2024-02-04T03:33:13;6.00;99.90
9482;DHT22;4779;48.062;11.672;2024-02-04T03:35:40;5.90;99.90
9482;DHT22;4779;48.062;11.672;2024-02-04T03:38:07;5.90;99.90
9482;DHT22;4779;48.062;11.672;2024-02-04T03:40:34;5.90;99.90
9482;DHT22;4779;48.062;11.672;2024-02-04T03:43:01;5.90;99.90
9482;DHT22;4779;48.062;11.672;2024-02-04T03:45:28;5.90;99.90
9482;DHT22;4779;48.062;11.672;2024-02-04T03:47:55;5.90;99.90
9482;DHT22;4779;48.062;11.672;2024-02-04T03:50:24;5.90;99.90
9482;DHT22;4779;48.062;11.672;2024-02-04T03:52:50;5.90;99.90
9482;DHT22;4779;48.062;11.672;2024-02-04T03:55:18;6.00;99.90
9482;DHT22;4779;48.062;11.672;2024-02-04T03:57:45;6.00;99.90
9482;DHT22;4779;48.062;11.672;2024-02-04T04:00:13;6.10;99.90
9482;DHT22;4779;48.062;11.672;2024-02-04T04:02:40;6.20;99.90
9482;DHT22;4779;48.062;11.672;2024-02-04T04:05:10;6.20;99.90
9482;DHT22;4779;48.062;11.672;2024-02-04T04:07:40;6.10;99.90
9482;DHT22;4779;48.062;11.672;2024-02-04T04:10:07;6.10;99.90
9482;DHT22;4779;48.062;11.672;2024-02-04T04:12:34;6.00;99.90
9482;DHT22;4779;48.062;11.672;2024-02-04T04:15:01;6.00;99.90
9482;DHT22;4779;48.062;11.672;2024-02-04T04:17:28;6.00;99.90
9482;DHT22;4779;48.062;11.672;2024-02-04T04:19:55;6.10;99.90
9482;DHT22;4779;48.062;11.672;2024-02-04T04:22:22;6.10;99.90
9482;DHT22;4779;48.062;11.672;2024-02-04T04:24:51;6.10;99.90
9482;DHT22;4779;48.062;11.672;2024-02-04T04:27:18;6.10;99.90
9482;DHT22;4779;48.062;11.672;2024-02-04T04:29:45;6.10;99.90
9482;DHT22;4779;48.062;11.672;2024-02-04T04:32:12;6.10;99.90
9482;DHT22;4779;48.062;11.672;2024-02-04T04:34:39;6.10;99.90
9482;DHT22;4779;48.062;11.672;2024-02-04T04:37:06;6.10;99.90
9482;DHT22;4779;48.062;11.672;2024-02-04T04:39:33;6.10;99.90
9482;DHT22;4779;48.062;11.672;2024-02-04T04:42:01;6.20;99.90
9482;DHT22;4779;48.062;11.672;2024-02-04T04:44:28;6.20;99.90
9482;DHT22;4779;48.062;11.672;2024-02-04T04:46:55;6.10;99.90
9482;DHT22;4779;48.062;11.672;2024-02-04T04:49:22;6.20;99.90
9482;DHT22;4779;48.062;11.672;2024-02-04T04:51:49;6.20;99.90
9482;DHT22;4779;48.062;11.672;2024-02-04T04:54:16;6.20;99.90
9482;DHT22;4779;48.062;11.672;2024-02-04T04:56:43;6.10;99.90
9482;DHT22;4779;48.062;11.672;2024-02-04T04:59:12;6.20;99.90
9482;DHT22;4779;48.062;11.672;2024-02-04T05:01:45;6.20;99.90
9482;DHT22;4779;48.062;11.672;2024-02-04T05:04:12;6.20;99.90
9482;DHT22;4779;48.062;11.672;2024-02-04T05:06:39;6.20;99.90
9482;DHT22;4779;48.062;11.672;2024-02-04T05:09:06;6.20;99.90
9482;DHT22;4779;48.062;11.672;2024-02-04T05:11:33;6.20;99.90
9482;DHT22;4779;48.062;11.672;2024-02-04T05:14:03;6.20;99.90
9482;DHT22;4779;48.062;11.672;2024-02-04T05:16:31;6.30;99.90
9482;DHT22;4779;48.062;11.672;2024-02-04T05:18:58;6.30;99.90
9482;DHT22;4779;48.062;11.672;2024-02-04T05:21:25;6.20;99.90
9482;DHT22;4779;48.062;11.672;2024-02-04T05:23:52;6.30;99.90
9482;DHT22;4779;48.062;11.672;2024-02-04T05:26:19;6.30;99.90
9482;DHT22;4779;48.062;11.672;2024-02-04T05:28:46;6.40;99.90
9482;DHT22;4779;48.062;11.672;2024-02-04T05:31:13;6.40;99.90
9482;DHT22;4779;48.062;11.672;2024-02-04T05:33:41;6.40;99.90
9482;DHT22;4779;48.062;11.672;2024-02-04T05:36:08;6.40;99.90
9482;DHT22;4779;48.062;11.672;2024-02-04T05:38:35;6.40;99.90
9482;DHT22;4779;48.062;11.672;2024-02-04T05:41:03;6.50;99.90
9482;DHT22;4779;48.062;11.672;2024-02-04T05:43:30;6.40;99.90
9482;DHT22;4779;48.062;11.672;2024-02-04T05:45:57;6.40;99.90
9482;DHT22;4779;48.062;11.672;2024-02-04T05:48:24;6.40;99.90
9482;DHT22;4779;48.062;11.672;2024-02-04T05:50:52;6.40;99.90
9482;DHT22;4779;48.062;11.672;2024-02-04T05:53:19;6.50;99.90
9482;DHT22;4779;48.062;11.672;2024-02-04T05:55:46;6.40;99.90
9482;DHT22;4779;48.062;11.672;2024-02-04T05:58:13;6.40;99.90
9482;DHT22;4779;48.062;11.672;2024-02-04T06:00:40;6.40;99.90
9482;DHT22;4779;48.062;11.672;2024-02-04T06:03:07;6.30;99.90
9482;DHT22;4779;48.062;11.672;2024-02-04T06:05:34;6.30;99.90
9482;DHT22;4779;48.062;11.672;2024-02-04T06:08:03;6.30;99.90
9482;DHT22;4779;48.062;11.672;2024-02-04T06:10:31;6.30;99.90
9482;DHT22;4779;48.062;11.672;2024-02-04T06:12:58;6.30;99.90
9482;DHT22;4779;48.062;11.672;2024-02-04T06:15:25;6.30;99.90
9482;DHT22;4779;48.062;11.672;2024-02-04T06:17:52;6.30;99.90
9482;DHT22;4779;48.062;11.672;2024-02-04T06:20:19;6.30;99.90
9482;DHT22;4779;48.062;11.672;2024-02-04T06:22:46;6.20;99.90
9482;DHT22;4779;48.062;11.672;2024-02-04T06:25:14;6.20;99.90
9482;DHT22;4779;48.062;11.672;2024-02-04T06:27:45;6.20;99.90
9482;DHT22;4779;48.062;11.672;2024-02-04T06:30:17;6.20;99.90
9482;DHT22;4779;48.062;11.672;2024-02-04T06:32:47;6.30;99.90
9482;DHT22;4779;48.062;11.672;2024-02-04T06:35:15;6.30;99.90
9482;DHT22;4779;48.062;11.672;2024-02-04T06:37:42;6.20;99.90
9482;DHT22;4779;48.062;11.672;2024-02-04T06:40:10;6.30;99.90
9482;DHT22;4779;48.062;11.672;2024-02-04T06:42:39;6.20;99.90
9482;DHT22;4779;48.062;11.672;2024-02-04T06:45:06;6.30;99.90
9482;DHT22;4779;48.062;11.672;2024-02-04T06:47:33;6.30;99.90
9482;DHT22;4779;48.062;11.672;2024-02-04T06:50:01;6.30;99.90
9482;DHT22;4779;48.062;11.672;2024-02-04T06:52:35;6.30;99.90
9482;DHT22;4779;48.062;11.672;2024-02-04T06:55:20;6.30;99.90
9482;DHT22;4779;48.062;11.672;2024-02-04T06:57:52;6.30;99.90
9482;DHT22;4779;48.062;11.672;2024-02-04T07:00:19;6.30;99.90
9482;DHT22;4779;48.062;11.672;2024-02-04T07:02:47;6.30;99.90
9482;DHT22;4779;48.062;11.672;2024-02-04T07:05:14;6.40;99.90
9482;DHT22;4779;48.062;11.672;2024-02-04T07:07:42;6.40;99.90
9482;DHT22;4779;48.062;11.672;2024-02-04T07:10:10;6.30;99.90
9482;DHT22;4779;48.062;11.672;2024-02-04T07:12:37;6.30;99.90
9482;DHT22;4779;48.062;11.672;2024-02-04T07:15:06;6.30;99.90
9482;DHT22;4779;48.062;11.672;2024-02-04T07:17:34;6.30;99.90
9482;DHT22;4779;48.062;11.672;2024-02-04T07:20:01;6.30;99.90
9482;DHT22;4779;48.062;11.672;2024-02-04T07:22:28;6.30;99.90
9482;DHT22;4779;48.062;11.672;2024-02-04T07:24:55;6.30;99.90
9482;DHT22;4779;48.062;11.672;2024-02-04T07:27:22;6.30;99.90
9482;DHT22;4779;48.062;11.672;2024-02-04T07:29:49;6.40;99.90
9482;DHT22;4779;48.062;11.672;2024-02-04T07:32:17;6.50;99.90
9482;DHT22;4779;48.062;11.672;2024-02-04T07:34:44;6.50;99.90
9482;DHT22;4779;48.062;11.672;2024-02-04T07:37:11;6.50;99.90
9482;DHT22;4779;48.062;11.672;2024-02-04T07:39:40;6.50;99.90
9482;DHT22;4779;48.062;11.672;2024-02-04T07:42:06;6.60;99.90
9482;DHT22;4779;48.062;11.672;2024-02-04T07:44:33;6.60;99.90
9482;DHT22;4779;48.062;11.672;2024-02-04T07:47:00;6.60;99.90
9482;DHT22;4779;48.062;11.672;2024-02-04T07:49:29;6.60;99.90
9482;DHT22;4779;48.062;11.672;2024-02-04T07:51:56;6.60;99.90
9482;DHT22;4779;48.062;11.672;2024-02-04T07:54:23;6.70;99.90
9482;DHT22;4779;48.062;11.672;2024-02-04T07:56:52;6.80;99.90
9482;DHT22;4779;48.062;11.672;2024-02-04T07:59:19;6.80;99.90
9482;DHT22;4779;48.062;11.672;2024-02-04T08:01:46;6.90;99.90
9482;DHT22;4779;48.062;11.672;2024-02-04T08:04:13;6.90;99.90
9482;DHT22;4779;48.062;11.672;2024-02-04T08:06:42;7.00;99.90
9482;DHT22;4779;48.062;11.672;2024-02-04T08:09:09;7.10;99.90
9482;DHT22;4779;48.062;11.672;2024-02-04T08:11:37;7.20;99.90
9482;DHT22;4779;48.062;11.672;2024-02-04T08:14:04;7.20;99.90
9482;DHT22;4779;48.062;11.672;2024-02-04T08:16:31;7.30;99.90
9482;DHT22;4779;48.062;11.672;2024-02-04T08:18:57;7.30;99.90
9482;DHT22;4779;48.062;11.672;2024-02-04T08:21:24;7.40;99.90
9482;DHT22;4779;48.062;11.672;2024-02-04T08:23:53;7.40;99.90
9482;DHT22;4779;48.062;11.672;2024-02-04T08:26:20;7.40;99.90
9482;DHT22;4779;48.062;11.672;2024-02-04T08:28:47;7.40;99.90
9482;DHT22;4779;48.062;11.672;2024-02-04T08:31:20;7.40;99.90
9482;DHT22;4779;48.062;11.672;2024-02-04T08:33:48;7.50;99.90
9482;DHT22;4779;48.062;11.672;2024-02-04T08:36:14;7.50;99.90
9482;DHT22;4779;48.062;11.672;2024-02-04T08:38:41;7.60;99.90
9482;DHT22;4779;48.062;11.672;2024-02-04T08:41:10;7.60;99.90
9482;DHT22;4779;48.062;11.672;2024-02-04T08:43:37;7.60;99.90
9482;DHT22;4779;48.062;11.672;2024-02-04T08:46:05;7.70;99.90
9482;DHT22;4779;48.062;11.672;2024-02-04T08:48:32;7.80;99.90
9482;DHT22;4779;48.062;11.672;2024-02-04T08:50:59;7.80;99.90
9482;DHT22;4779;48.062;11.672;2024-02-04T08:53:26;7.80;99.90
9482;DHT22;4779;48.062;11.672;2024-02-04T08:55:56;7.80;99.90
9482;DHT22;4779;48.062;11.672;2024-02-04T08:58:28;7.90;99.90
9482;DHT22;4779;48.062;11.672;2024-02-04T09:00:57;8.00;99.90
9482;DHT22;4779;48.062;11.672;2024-02-04T09:03:24;8.00;99.90
9482;DHT22;4779;48.062;11.672;2024-02-04T09:05:51;8.20;99.90
9482;DHT22;4779;48.062;11.672;2024-02-04T09:08:18;8.20;99.90
9482;DHT22;4779;48.062;11.672;2024-02-04T09:10:45;8.40;99.90
9482;DHT22;4779;48.062;11.672;2024-02-04T09:13:13;8.50;99.90
9482;DHT22;4779;48.062;11.672;2024-02-04T09:15:41;8.60;99.90
9482;DHT22;4779;48.062;11.672;2024-02-04T09:18:08;8.70;99.90
9482;DHT22;4779;48.062;11.672;2024-02-04T09:20:35;8.90;99.90
9482;DHT22;4779;48.062;11.672;2024-02-04T09:23:03;9.00;99.90
9482;DHT22;4779;48.062;11.672;2024-02-04T09:25:30;9.30;99.90
9482;DHT22;4779;48.062;11.672;2024-02-04T09:27:57;9.60;99.90
9482;DHT22;4779;48.062;11.672;2024-02-04T09:30:27;9.90;99.90
9482;DHT22;4779;48.062;11.672;2024-02-04T09:32:56;9.80;99.90
9482;DHT22;4779;48.062;11.672;2024-02-04T09:35:23;9.80;99.90
9482;DHT22;4779;48.062;11.672;2024-02-04T09:37:50;9.70;99.90
9482;DHT22;4779;48.062;11.672;2024-02-04T09:40:17;9.60;99.90
9482;DHT22;4779;48.062;11.672;2024-02-04T09:42:45;9.50;99.90
9482;DHT22;4779;48.062;11.672;2024-02-04T09:47:46;9.50;99.90
9482;DHT22;4779;48.062;11.672;2024-02-04T09:50:14;9.20;99.90
9482;DHT22;4779;48.062;11.672;2024-02-04T09:52:44;9.20;99.90
9482;DHT22;4779;48.062;11.672;2024-02-04T09:55:15;9.20;99.90
9482;DHT22;4779;48.062;11.672;2024-02-04T09:57:44;9.20;99.90
9482;DHT22;4779;48.062;11.672;2024-02-04T10:00:12;9.20;99.90
9482;DHT22;4779;48.062;11.672;2024-02-04T10:02:41;9.20;99.90
9482;DHT22;4779;48.062;11.672;2024-02-04T10:05:08;9.30;99.90
9482;DHT22;4779;48.062;11.672;2024-02-04T10:07:38;9.30;99.90
9482;DHT22;4779;48.062;11.672;2024-02-04T10:10:07;9.50;99.90
9482;DHT22;4779;48.062;11.672;2024-02-04T10:12:34;9.80;99.90
9482;DHT22;4779;48.062;11.672;2024-02-04T10:15:04;10.00;99.90
9482;DHT22;4779;48.062;11.672;2024-02-04T10:17:32;10.30;99.90
9482;DHT22;4779;48.062;11.672;2024-02-04T10:20:02;10.40;99.90
9482;DHT22;4779;48.062;11.672;2024-02-04T10:22:29;10.50;99.90
9482;DHT22;4779;48.062;11.672;2024-02-04T10:25:07;10.60;99.90
9482;DHT22;4779;48.062;11.672;2024-02-04T10:27:34;10.80;99.90
9482;DHT22;4779;48.062;11.672;2024-02-04T10:30:02;11.00;99.90
9482;DHT22;4779;48.062;11.672;2024-02-04T10:32:30;10.90;99.90
9482;DHT22;4779;48.062;11.672;2024-02-04T10:34:58;10.80;99.90
9482;DHT22;4779;48.062;11.672;2024-02-04T10:37:25;10.80;99.90
9482;DHT22;4779;48.062;11.672;2024-02-04T10:39:52;10.60;99.90
9482;DHT22;4779;48.062;11.672;2024-02-04T10:42:24;10.70;99.90
9482;DHT22;4779;48.062;11.672;2024-02-04T10:44:52;10.90;99.90
9482;DHT22;4779;48.062;11.672;2024-02-04T10:47:23;11.00;99.90
9482;DHT22;4779;48.062;11.672;2024-02-04T10:49:51;11.10;99.90
9482;DHT22;4779;48.062;11.672;2024-02-04T10:52:20;11.10;99.90
9482;DHT22;4779;48.062;11.672;2024-02-04T10:54:49;11.20;99.90
9482;DHT22;4779;48.062;11.672;2024-02-04T10:57:22;11.70;99.90
9482;DHT22;4779;48.062;11.672;2024-02-04T11:00:00;12.30;99.90
9482;DHT22;4779;48.062;11.672;2024-02-04T11:02:31;12.80;99.90
9482;DHT22;4779;48.062;11.672;2024-02-04T11:07:32;13.70;99.90
9482;DHT22;4779;48.062;11.672;2024-02-04T11:10:03;14.40;99.90
9482;DHT22;4779;48.062;11.672;2024-02-04T11:12:33;15.30;99.90
9482;DHT22;4779;48.062;11.672;2024-02-04T11:15:04;15.20;97.90
9482;DHT22;4779;48.062;11.672;2024-02-04T11:17:57;14.90;97.70
9482;DHT22;4779;48.062;11.672;2024-02-04T11:20:43;14.70;97.70
9482;DHT22;4779;48.062;11.672;2024-02-04T11:23:27;15.00;97.80
9482;DHT22;4779;48.062;11.672;2024-02-04T11:25:56;15.90;97.40
9482;DHT22;4779;48.062;11.672;2024-02-04T11:28:26;15.80;97.10
9482;DHT22;4779;48.062;11.672;2024-02-04T11:30:56;15.60;96.70
9482;DHT22;4779;48.062;11.672;2024-02-04T11:33:23;15.30;96.40
9482;DHT22;4779;48.062;11.672;2024-02-04T11:36:00;15.50;96.90
9482;DHT22;4779;48.062;11.672;2024-02-04T11:38:31;16.00;96.00
9482;DHT22;4779;48.062;11.672;2024-02-04T11:41:05;15.60;96.60
9482;DHT22;4779;48.062;11.672;2024-02-04T11:43:34;14.90;97.70
9482;DHT22;4779;48.062;11.672;2024-02-04T11:46:03;14.90;97.40
9482;DHT22;4779;48.062;11.672;2024-02-04T11:48:32;15.00;97.70
9482;DHT22;4779;48.062;11.672;2024-02-04T11:51:00;15.00;97.00
9482;DHT22;4779;48.062;11.672;2024-02-04T11:53:27;14.60;98.10
9482;DHT22;4779;48.062;11.672;2024-02-04T11:55:57;14.00;98.60
9482;DHT22;4779;48.062;11.672;2024-02-04T11:58:26;13.30;99.50
9482;DHT22;4779;48.062;11.672;2024-02-04T12:00:56;13.00;99.90
9482;DHT22;4779;48.062;11.672;2024-02-04T12:03:30;12.90;99.90
9482;DHT22;4779;48.062;11.672;2024-02-04T12:05:58;12.80;99.90
9482;DHT22;4779;48.062;11.672;2024-02-04T12:08:27;12.60;99.90
9482;DHT22;4779;48.062;11.672;2024-02-04T12:10:54;12.40;99.90
9482;DHT22;4779;48.062;11.672;2024-02-04T12:13:22;12.20;99.90
9482;DHT22;4779;48.062;11.672;2024-02-04T12:15:49;12.10;99.90
9482;DHT22;4779;48.062;11.672;2024-02-04T12:18:18;12.00;99.90
9482;DHT22;4779;48.062;11.672;2024-02-04T12:20:47;11.80;99.90
9482;DHT22;4779;48.062;11.672;2024-02-04T12:23:14;11.80;99.90
9482;DHT22;4779;48.062;11.672;2024-02-04T12:25:41;11.80;99.90
9482;DHT22;4779;48.062;11.672;2024-02-04T12:28:09;11.80;99.90
9482;DHT22;4779;48.062;11.672;2024-02-04T12:30:36;11.90;99.90
9482;DHT22;4779;48.062;11.672;2024-02-04T12:33:05;12.00;99.90
9482;DHT22;4779;48.062;11.672;2024-02-04T12:35:33;12.00;99.90
9482;DHT22;4779;48.062;11.672;2024-02-04T12:38:01;12.00;99.90
9482;DHT22;4779;48.062;11.672;2024-02-04T12:40:30;11.90;99.90
9482;DHT22;4779;48.062;11.672;2024-02-04T12:42:57;11.60;99.90
9482;DHT22;4779;48.062;11.672;2024-02-04T12:45:25;11.70;99.90
9482;DHT22;4779;48.062;11.672;2024-02-04T12:47:53;11.60;99.90
9482;DHT22;4779;48.062;11.672;2024-02-04T12:50:21;11.50;99.90
9482;DHT22;4779;48.062;11.672;2024-02-04T12:53:01;11.40;99.90
9482;DHT22;4779;48.062;11.672;2024-02-04T12:55:28;11.30;99.90
9482;DHT22;4779;48.062;11.672;2024-02-04T12:58:04;11.30;99.90
9482;DHT22;4779;48.062;11.672;2024-02-04T13:00:32;11.20;99.90
9482;DHT22;4779;48.062;11.672;2024-02-04T13:02:59;11.30;99.90
9482;DHT22;4779;48.062;11.672;2024-02-04T13:05:26;11.30;99.90
9482;DHT22;4779;48.062;11.672;2024-02-04T13:07:56;11.40;99.90
9482;DHT22;4779;48.062;11.672;2024-02-04T13:10:23;11.30;99.90
9482;DHT22;4779;48.062;11.672;2024-02-04T13:13:01;11.30;99.90
9482;DHT22;4779;48.062;11.672;2024-02-04T13:15:29;11.40;99.90
9482;DHT22;4779;48.062;11.672;2024-02-04T13:17:56;11.50;99.90
9482;DHT22;4779;48.062;11.672;2024-02-04T13:20:24;11.60;99.90
9482;DHT22;4779;48.062;11.672;2024-02-04T13:22:51;11.70;99.90
9482;DHT22;4779;48.062;11.672;2024-02-04T13:25:21;11.60;99.90
9482;DHT22;4779;48.062;11.672;2024-02-04T13:27:48;11.60;99.90
9482;DHT22;4779;48.062;11.672;2024-02-04T13:30:16;11.50;99.90
9482;DHT22;4779;48.062;11.672;2024-02-04T13:32:43;11.40;99.90
9482;DHT22;4779;48.062;11.672;2024-02-04T13:35:10;11.40;99.90
9482;DHT22;4779;48.062;11.672;2024-02-04T13:37:39;11.40;99.90
9482;DHT22;4779;48.062;11.672;2024-02-04T13:40:06;11.50;99.90
9482;DHT22;4779;48.062;11.672;2024-02-04T13:42:35;11.50;99.90
9482;DHT22;4779;48.062;11.672;2024-02-04T13:45:03;11.50;99.90
9482;DHT22;4779;48.062;11.672;2024-02-04T13:47:30;11.50;99.90
9482;DHT22;4779;48.062;11.672;2024-02-04T13:49:57;11.50;99.90
9482;DHT22;4779;48.062;11.672;2024-02-04T13:52:24;11.60;99.90
9482;DHT22;4779;48.062;11.672;2024-02-04T13:54:51;11.50;99.90
9482;DHT22;4779;48.062;11.672;2024-02-04T13:57:18;11.40;99.90
9482;DHT22;4779;48.062;11.672;2024-02-04T13:59:48;11.40;99.90
9482;DHT22;4779;48.062;11.672;2024-02-04T14:02:15;11.40;99.90
9482;DHT22;4779;48.062;11.672;2024-02-04T14:04:43;11.30;99.90
9482;DHT22;4779;48.062;11.672;2024-02-04T14:07:10;11.30;99.90
9482;DHT22;4779;48.062;11.672;2024-02-04T14:09:39;11.20;99.90
9482;DHT22;4779;48.062;11.672;2024-02-04T14:12:07;11.20;99.90
9482;DHT22;4779;48.062;11.672;2024-02-04T14:14:34;11.20;99.90
9482;DHT22;4779;48.062;11.672;2024-02-04T14:17:03;11.20;99.90
9482;DHT22;4779;48.062;11.672;2024-02-04T14:19:30;11.20;99.90
9482;DHT22;4779;48.062;11.672;2024-02-04T14:21:57;11.10;99.90
9482;DHT22;4779;48.062;11.672;2024-02-04T14:24:24;11.10;99.90
9482;DHT22;4779;48.062;11.672;2024-02-04T14:26:56;11.10;99.90
9482;DHT22;4779;48.062;11.672;2024-02-04T14:29:24;11.00;99.90
9482;DHT22;4779;48.062;11.672;2024-02-04T14:31:52;11.00;99.90
9482;DHT22;4779;48.062;11.672;2024-02-04T14:34:20;11.00;99.90
9482;DHT22;4779;48.062;11.672;2024-02-04T14:36:47;11.00;99.90
9482;DHT22;4779;48.062;11.672;2024-02-04T14:39:14;11.00;99.90
9482;DHT22;4779;48.062;11.672;2024-02-04T14:41:42;10.90;99.90
9482;DHT22;4779;48.062;11.672;2024-02-04T14:44:09;10.90;99.90
9482;DHT22;4779;48.062;11.672;2024-02-04T14:46:37;11.00;99.90
9482;DHT22;4779;48.062;11.672;2024-02-04T14:49:04;11.00;99.90
9482;DHT22;4779;48.062;11.672;2024-02-04T14:51:32;11.00;99.90
9482;DHT22;4779;48.062;11.672;2024-02-04T14:54:01;11.00;99.90
9482;DHT22;4779;48.062;11.672;2024-02-04T14:56:28;11.00;99.90
9482;DHT22;4779;48.062;11.672;2024-02-04T14:58:55;10.90;99.90
9482;DHT22;4779;48.062;11.672;2024-02-04T15:01:22;11.00;99.90
9482;DHT22;4779;48.062;11.672;2024-02-04T15:03:49;10.90;99.90
9482;DHT22;4779;48.062;11.672;2024-02-04T15:06:16;11.00;99.90
9482;DHT22;4779;48.062;11.672;2024-02-04T15:08:46;10.90;99.90
9482;DHT22;4779;48.062;11.672;2024-02-04T15:11:13;10.90;99.90
9482;DHT22;4779;48.062;11.672;2024-02-04T15:13:41;10.90;99.90
9482;DHT22;4779;48.062;11.672;2024-02-04T15:16:09;10.90;99.90
9482;DHT22;4779;48.062;11.672;2024-02-04T15:18:38;10.90;99.90
9482;DHT22;4779;48.062;11.672;2024-02-04T15:21:06;10.90;99.90
9482;DHT22;4779;48.062;11.672;2024-02-04T15:23:34;10.80;99.90
9482;DHT22;4779;48.062;11.672;2024-02-04T15:26:04;10.80;99.90
9482;DHT22;4779;48.062;11.672;2024-02-04T15:28:34;10.70;99.90
9482;DHT22;4779;48.062;11.672;2024-02-04T15:31:01;10.70;99.90
9482;DHT22;4779;48.062;11.672;2024-02-04T15:33:29;10.70;99.90
9482;DHT22;4779;48.062;11.672;2024-02-04T15:35:56;10.70;99.90
9482;DHT22;4779;48.062;11.672;2024-02-04T15:38:23;10.70;99.90
9482;DHT22;4779;48.062;11.672;2024-02-04T15:40:50;10.70;99.90
9482;DHT22;4779;48.062;11.672;2024-02-04T15:43:18;10.80;99.90
9482;DHT22;4779;48.062;11.672;2024-02-04T15:45:47;10.70;99.90
9482;DHT22;4779;48.062;11.672;2024-02-04T15:48:17;10.80;99.90
9482;DHT22;4779;48.062;11.672;2024-02-04T15:50:45;10.70;99.90
9482;DHT22;4779;48.062;11.672;2024-02-04T15:53:13;10.70;99.90
9482;DHT22;4779;48.062;11.672;2024-02-04T15:55:40;10.70;99.90
9482;DHT22;4779;48.062;11.672;2024-02-04T15:58:08;10.70;99.90
9482;DHT22;4779;48.062;11.672;2024-02-04T16:00:38;10.70;99.90
9482;DHT22;4779;48.062;11.672;2024-02-04T16:03:05;10.70;99.90
9482;DHT22;4779;48.062;11.672;2024-02-04T16:05:36;10.60;99.90